Fortville, IN (46040)

7:30 PM EDT on July 24, 2016 (GMT -0400)
APRSWXNET | | Change Station
Active Advisory: Heat Advisory

Elev 866 ft 39.90 °N, 85.83 °W | Updated 38 minutes ago

Scattered Clouds
Scattered Clouds
89 °F
Feels Like 104 °F
N
3
Wind Variable Wind from SW
Gusts 7.0 mph

Today
High -- | Low -- °F
--% Chance of Precip.
Yesterday
High -- | Low -- °F
Precip. -- in
Pressure 29.97 in
Visibility 10.0 miles
Clouds Scattered Clouds 4100 ft
Heat Index 104 °F
Dew Point 79 °F
Humidity 72%
Rainfall in
Snow Depth Not available.
6:35 AM 9:04 PM
Waning Gibbous, 72% visible
METAR KMQJ 242317Z AUTO 23005KT 10SM SCT041 31/24 A2997 RMK AO1
Pressure 29.97 in
Visibility 10.0 miles
Clouds Scattered Clouds 4100 ft
Heat Index 104 °F
Dew Point 79 °F
Humidity 72%
Rainfall in
Snow Depth Not available.
6:35 AM 9:04 PM
Waning Gibbous, 72% visible
METAR KMQJ 242317Z AUTO 23005KT 10SM SCT041 31/24 A2997 RMK AO1

10-Day Weather Forecast

Almanac

Astronomy

Jul. 24, 2016 Rise Set
Actual Time
Civil Twilight
Nautical Twilight
Astronomical Twilight
Moon
Length of Visible Light
Length of Day
Tomorrow will be .
, % of the Moon is Illuminated

Today's Extremes

State Highs State Lows

Community

WunderPhotos

Upload Photos

1,927,205 photos uploaded!

WunderBlog® & News

Nearby

Air Quality

  Air Quality AQ Index Pollutant
Not available.

Snow Depth

Station Depth Elevation

Earthquake Activity

City Distance Mag. Time & Date
Minimum magnitude displayed is 2.5.

Coastal Water Temperatures

Place Temperature

Stations

Nearby Weather Stations

Station Location Temp. Windchill Dew Point Humidity Wind Precip. Elev Updated Type
                   

Watches & Warnings

Heat Advisory
Issued: 3:23 PM EDT Jul. 24, 2016 – National Weather Service

... Heat advisory remains in effect until 8 PM EDT this evening...

* temperature... maximums will reach the lower to middle 90s
while dewpoint temperatures reach the middle 70s.

* Heat index... heat index values will approach 105 degrees this
afternoon.

* Impacts... there is a risk for heat related illnesses with
prolonged outdoor exposure or no access to air conditioning.

Precautionary/preparedness actions...

A heat advisory means that a period of hot temperatures is
expected. The combination of hot temperatures and high humidity
will combine to create a situation in which heat illnesses are
possible. Drink plenty of fluids... stay in an air-conditioned
room... stay out of the sun... and check up on relatives and
neighbors.